Terminal Aerodrome Forecast
Issued by NWS

Current Version | Previous Version | Graphics & Text | Print | Product List | Glossary On
Versions: 1 2 3 4 5 6 7 8 9 10 11 12 13 14 15 16 17 18 19 20 21 22 23 24 25 26 27 28
000
FTUS41 KRLX 282338
TAFCKB
TAF
KCKB 282338Z 2900/2924 00000KT P6SM SCT040
     FM290600 00000KT 4SM BR SCT150
     FM291400 00000KT P6SM SCT070
     FM291700 01004KT P6SM BKN045=

USA.gov is the U.S. government's official web portal to all federal, state and local government web resources and services.